This is the latest recevied weather packets stored in our database for station/object AI5BL. If no packets are shown the sender has not sent any weather packets the latest 1 day(s).
| Time | Temp. | Humidity | Pressure | Rain* | Wind** | Luminosity | Snow |
|---|---|---|---|---|---|---|---|
| 1777995603 | 23.89° C | 67% | 1016 hPa | 0 mm | 1.79 m/s, 156° | 521 W/m² | - |
| 1777995301 | 23.89° C | 71% | 1016.2 hPa | 0 mm | 0.45 m/s, 149° | 519 W/m² | - |
| 1777994997 | 23.89° C | 68% | 1016 hPa | 0 mm | 0.89 m/s, 167° | 567 W/m² | - |
| 1777994694 | 23.89° C | 67% | 1016 hPa | 0 mm | 1.34 m/s, 36° | 577 W/m² | - |
| 1777994389 | 23.33° C | 71% | 1016.2 hPa | 0 mm | 2.24 m/s, 137° | 474 W/m² | - |
| 1777994085 | 22.78° C | 68% | 1016.2 hPa | 0 mm | 0.89 m/s, 43° | 461 W/m² | - |
| 1777993783 | 23.89° C | 69% | 1016.3 hPa | 0 mm | 0.89 m/s, 101° | 464 W/m² | - |
| 1777993479 | 22.78° C | 70% | 1016.2 hPa | 0 mm | 0 m/s | 411 W/m² | - |
| 1777993179 | 22.78° C | 68% | 1016.2 hPa | 0 mm | 1.34 m/s, 222° | 381 W/m² | - |
| 1777992877 | 22.78° C | 74% | 1016.3 hPa | 0 mm | 0.45 m/s, 92° | 369 W/m² | - |
| 1777992575 | 22.78° C | 71% | 1016.2 hPa | 0 mm | 0.45 m/s, 134° | 370 W/m² | - |
| 1777992273 | 22.78° C | 74% | 1016.1 hPa | 0 mm | 0.45 m/s, 85° | 487 W/m² | - |
| 1777991970 | 22.22° C | 75% | 1016.1 hPa | 0 mm | 0.45 m/s, 152° | 433 W/m² | - |
| 1777991667 | 22.22° C | 72% | 1016 hPa | 0 mm | 0 m/s | 339 W/m² | - |
| 1777991364 | 22.22° C | 73% | 1015.9 hPa | 0 mm | 0 m/s | 381 W/m² | - |
| 1777991062 | 22.78° C | 75% | 1016 hPa | 0 mm | 0 m/s | 392 W/m² | - |
| 1777990759 | 22.22° C | 75% | 1016 hPa | 0 mm | 0.89 m/s, 172° | 384 W/m² | - |
| 1777990456 | 21.67° C | 76% | 1015.9 hPa | 0 mm | 0 m/s | 367 W/m² | - |
| 1777990153 | 21.11° C | 75% | 1015.8 hPa | 0 mm | 0 m/s | 302 W/m² | - |
| 1777989849 | 20.56° C | 78% | 1015.8 hPa | 0 mm | 0 m/s | 426 W/m² | - |
| 1777989546 | 20.56° C | 76% | 1015.9 hPa | 0 mm | 0.45 m/s, 159° | 336 W/m² | - |
| 1777989243 | 20° C | 78% | 1015.9 hPa | 0 mm | 0.45 m/s, 107° | 335 W/m² | - |
| 1777988939 | 19.44° C | 79% | 1016.2 hPa | 0 mm | 0.89 m/s, 120° | 330 W/m² | - |
| 1777988636 | 18.89° C | 80% | 1016.1 hPa | 0 mm | 0.45 m/s, 144° | 279 W/m² | - |
| 1777988332 | 18.33° C | 84% | 1016 hPa | 0 mm | 0 m/s | 228 W/m² | - |
* Rain latest hour (hover to see other rain measurements)
** Current wind speed in m/s (hover to see current wind gust speed)